El Paso International Airport
KELP : now visible

Airfield :











YOU CAN JOIN US ON...

 
LOGIN :

Register | Disclaimer

   EN    FR    IT 

 









Legend :    VFR   Marginal VFR   IFR   Intensive IFR   Very Intensive IFR
Visi :
Ceiling :
>= 8 km
>= 3000ft
5 to 8 km
1000 to 3000 ft
1500m to 5 km
500 to 1000 ft
800 to 1500m
200 to 500 ft
< 800m
< 200 ft
Symbols :   Thunderstorms  Fog  Heavy snow  Heavy precipitations  Wind > 20 kt






- Airport Elevation : 3959 ft
- IATA code : ELP


KELP - El Paso International

CURRENT METAR :
  • 190451Z 14009KT 10SM FEW080 FEW150 FEW250 28/16 A3018 RMK AO2 SLP140 OCNL LTGIC DSNT N CB DSNT N MOV S T02780156

EXPIRED METARs :
  • 190351Z 14012KT 10SM FEW080 FEW150 FEW250 29/13 A3017 RMK AO2 SLP137 T02890133
  • 190251Z 10012G18KT 10SM FEW080 FEW150 FEW200 SCT250 30/13 A3014 RMK AO2 SLP126 T03000133 53009
  • 190151Z 11007KT 10SM FEW080 SCT150 SCT200 BKN250 31/14 A3013 RMK AO2 SLP124 ACSL DSNT E T03110139
  • 190051Z 08007KT 10SM FEW080 SCT150 SCT200 BKN250 33/13 A3011 RMK AO2 SLP116 T03330128

TAF KELP
Valid from the 19 at 00:00 until the 20 at 00:00 UTC


182324Z 1900/1924 10010KT P6SM FEW080 SCT110
KZAB FIR / North America



MET'MAP, your aeronautical weather chart ! - Copyright ORBIFLY December 2007 - Disclaimer

ORBIFLY MET'MAP TEAM :

Programming & Development : Alexandra Zaïnal
Original concept : Baudouin d'Aumeries
Technical & hardware support : Manuel Goepfert
Assistance : Marc-Olivier Méhu




SOURCES & CREDITS :

   NOAA       Earth
Advisory